createdAt,value
2019-06-07T00:02:19.074Z,97.80
2019-06-07T00:04:48.859Z,97.70
2019-06-07T00:07:21.838Z,97.80
2019-06-07T00:09:50.103Z,97.80
2019-06-07T00:12:21.597Z,97.80
2019-06-07T00:14:51.214Z,97.90
2019-06-07T00:17:20.875Z,97.90
2019-06-07T00:19:50.613Z,98.00
2019-06-07T00:22:32.381Z,98.10
2019-06-07T00:24:51.685Z,98.10
2019-06-07T00:27:22.624Z,98.20
2019-06-07T00:29:52.804Z,98.20
2019-06-07T00:32:22.541Z,98.10
2019-06-07T00:34:52.197Z,98.20
2019-06-07T00:37:25.181Z,98.40
2019-06-07T00:40:12.811Z,98.50
2019-06-07T00:42:24.649Z,98.50
2019-06-07T00:44:54.317Z,98.50
2019-06-07T00:47:25.789Z,98.60
2019-06-07T00:49:55.423Z,98.70
2019-06-07T00:54:57.111Z,98.60
2019-06-07T00:57:26.838Z,98.70
2019-06-07T00:59:56.703Z,98.70
2019-06-07T01:02:31.241Z,98.80
2019-06-07T01:04:57.815Z,98.90
2019-06-07T01:07:27.481Z,99.00
2019-06-07T01:09:57.108Z,99.00
2019-06-07T01:12:27.224Z,99.20
2019-06-07T01:14:57.103Z,99.20
2019-06-07T01:17:41.729Z,99.10
2019-06-07T01:19:59.883Z,99.10
2019-06-07T01:22:29.670Z,99.10
2019-06-07T01:24:59.366Z,99.20
2019-06-07T01:27:29.052Z,99.30
2019-06-07T01:29:58.657Z,99.30
2019-06-07T01:32:31.847Z,99.30
2019-06-07T01:35:00.063Z,99.30
2019-06-07T01:37:30.466Z,99.30
2019-06-07T01:40:00.514Z,99.40
2019-06-07T01:42:31.005Z,99.60
2019-06-07T01:45:01.085Z,99.60
2019-06-07T01:47:32.161Z,99.60
2019-06-07T01:50:02.146Z,99.60
2019-06-07T01:52:31.815Z,99.70
2019-06-07T01:55:01.519Z,99.80
2019-06-07T01:57:45.397Z,99.70
2019-06-07T02:00:02.611Z,99.80
2019-06-07T02:02:32.300Z,99.70
2019-06-07T02:05:02.093Z,99.70
2019-06-07T02:07:32.980Z,99.80
2019-06-07T02:10:03.376Z,99.90
2019-06-07T02:12:42.468Z,99.90
2019-06-07T02:15:05.573Z,99.90
2019-06-07T02:17:35.299Z,99.90
2019-06-07T02:20:05.396Z,99.90
2019-06-07T02:22:35.103Z,99.90
2019-06-07T02:25:35.328Z,99.90
2019-06-07T02:27:37.938Z,99.90
2019-06-07T02:30:36.962Z,99.90
2019-06-07T02:32:39.315Z,99.90
2019-06-07T02:35:09.366Z,99.90
2019-06-07T02:37:39.137Z,99.90
2019-06-07T02:40:09.001Z,99.90
2019-06-07T02:42:42.669Z,99.90
2019-06-07T02:45:11.330Z,99.90
2019-06-07T02:47:42.169Z,99.90
2019-06-07T02:50:12.851Z,99.90
2019-06-07T02:52:42.622Z,99.90
2019-06-07T02:55:13.390Z,99.90
2019-06-07T02:57:43.375Z,99.90
2019-06-07T03:00:41.867Z,99.90
2019-06-07T03:02:46.100Z,99.90
2019-06-07T03:05:15.994Z,99.90
2019-06-07T03:07:48.184Z,99.90
2019-06-07T03:10:17.834Z,99.90
2019-06-07T03:12:49.155Z,99.90
2019-06-07T03:15:32.608Z,99.90
2019-06-07T03:18:03.791Z,99.90
2019-06-07T03:20:36.284Z,99.90
2019-06-07T03:23:07.221Z,99.90
2019-06-07T03:25:39.535Z,99.90
2019-06-07T03:28:09.666Z,99.90
2019-06-07T03:30:57.059Z,99.90
2019-06-07T03:33:10.714Z,99.90
2019-06-07T03:35:40.793Z,99.90
2019-06-07T03:38:10.883Z,99.90
2019-06-07T03:40:40.614Z,99.90
2019-06-07T03:43:10.451Z,99.90
2019-06-07T03:45:41.683Z,99.90
2019-06-07T03:48:11.719Z,99.90
2019-06-07T03:50:42.377Z,99.90
2019-06-07T03:53:12.495Z,99.90
2019-06-07T03:55:42.241Z,99.90
2019-06-07T04:00:43.661Z,99.90
2019-06-07T04:03:33.027Z,99.90
2019-06-07T04:05:45.037Z,99.90
2019-06-07T04:08:14.692Z,99.90
2019-06-07T04:10:58.526Z,99.90
2019-06-07T04:13:15.773Z,99.90
2019-06-07T04:15:45.611Z,99.90
2019-06-07T04:18:15.388Z,99.90
2019-06-07T04:20:45.171Z,99.90
2019-06-07T04:23:27.947Z,99.90
2019-06-07T04:25:46.504Z,99.90
2019-06-07T04:29:25.060Z,99.90
2019-06-07T04:31:06.593Z,99.90
2019-06-07T04:33:40.837Z,99.90
2019-06-07T04:36:07.768Z,99.90
2019-06-07T04:38:40.544Z,99.90
2019-06-07T04:41:10.901Z,99.90
2019-06-07T04:43:42.885Z,99.90
2019-06-07T04:46:13.615Z,99.90
2019-06-07T04:48:45.657Z,99.90
2019-06-07T04:51:17.021Z,99.90
2019-06-07T04:53:49.810Z,99.90
2019-06-07T04:56:20.460Z,99.90
2019-06-07T04:58:50.384Z,99.90
2019-06-07T05:01:27.262Z,99.90
2019-06-07T05:03:51.512Z,99.90
2019-06-07T05:06:21.243Z,99.90
2019-06-07T05:08:50.900Z,99.90
2019-06-07T05:11:20.741Z,99.90
2019-06-07T05:13:50.456Z,99.90
2019-06-07T05:16:20.187Z,99.90
2019-06-07T05:18:50.003Z,99.90
2019-06-07T05:21:20.003Z,99.90
2019-06-07T05:24:06.580Z,99.90
2019-06-07T05:26:21.298Z,99.90
2019-06-07T05:28:51.064Z,99.90
2019-06-07T05:31:20.687Z,99.80
2019-06-07T05:33:50.387Z,99.80
2019-06-07T05:36:20.242Z,99.80
2019-06-07T05:38:50.110Z,99.70
2019-06-07T05:41:19.865Z,99.60
2019-06-07T05:44:07.635Z,99.30
2019-06-07T05:46:20.939Z,99.20
2019-06-07T05:48:50.568Z,99.00
2019-06-07T05:51:20.226Z,98.90
2019-06-07T05:53:49.854Z,98.80
2019-06-07T05:56:19.597Z,98.70
2019-06-07T05:58:49.358Z,98.60
2019-06-07T06:01:42.693Z,98.50
2019-06-07T06:03:50.350Z,98.40
2019-06-07T06:06:20.150Z,98.40
2019-06-07T06:08:49.868Z,98.20
2019-06-07T06:11:19.604Z,98.00
2019-06-07T06:14:05.921Z,98.00
2019-06-07T06:16:20.651Z,97.90
2019-06-07T06:18:50.362Z,97.70
2019-06-07T06:21:20.568Z,97.60
2019-06-07T06:23:52.081Z,97.40
2019-06-07T06:26:22.134Z,97.20
2019-06-07T06:28:51.873Z,97.40
2019-06-07T06:31:21.688Z,96.90
2019-06-07T06:33:51.447Z,96.90
2019-06-07T06:36:21.862Z,97.10
2019-06-07T06:38:52.055Z,97.20
2019-06-07T06:41:21.738Z,96.80
2019-06-07T06:43:52.718Z,96.60
2019-06-07T06:46:38.050Z,96.40
2019-06-07T06:48:55.506Z,96.00
2019-06-07T06:51:25.711Z,95.70
2019-06-07T06:53:55.473Z,95.80
2019-06-07T06:56:25.339Z,95.90
2019-06-07T07:01:26.610Z,95.20
2019-06-07T07:04:11.239Z,95.00
2019-06-07T07:06:28.806Z,95.10
2019-06-07T07:09:29.766Z,95.10
2019-06-07T07:12:10.968Z,95.20
2019-06-07T07:14:31.056Z,95.20
2019-06-07T07:17:00.889Z,95.00
2019-06-07T07:19:30.727Z,94.70
2019-06-07T07:22:00.415Z,94.60
2019-06-07T07:24:30.226Z,93.90
2019-06-07T07:26:59.870Z,93.80
2019-06-07T07:29:29.623Z,94.10
2019-06-07T07:31:59.404Z,94.00
2019-06-07T07:34:36.370Z,93.90
2019-06-07T07:37:00.467Z,93.40
2019-06-07T07:39:30.126Z,93.20
2019-06-07T07:42:17.410Z,92.80
2019-06-07T07:44:31.305Z,92.30
2019-06-07T07:47:01.064Z,92.50
2019-06-07T07:49:30.939Z,92.10
2019-06-07T07:52:00.763Z,92.00
2019-06-07T07:54:30.490Z,91.10
2019-06-07T07:57:00.310Z,90.90
2019-06-07T07:59:41.811Z,90.20
2019-06-07T08:02:03.237Z,90.20
2019-06-07T08:05:13.091Z,88.10
2019-06-07T08:07:04.373Z,88.60
2019-06-07T08:09:34.768Z,88.30
2019-06-07T08:12:04.599Z,88.00
2019-06-07T08:14:34.272Z,88.40
2019-06-07T08:17:04.048Z,88.00
2019-06-07T08:19:33.737Z,86.90
2019-06-07T08:22:04.050Z,84.60
2019-06-07T08:24:33.812Z,83.50
2019-06-07T08:27:24.806Z,83.10
2019-06-07T08:29:45.022Z,82.90
2019-06-07T08:32:06.497Z,82.40
2019-06-07T08:34:36.406Z,83.80
2019-06-07T08:37:06.277Z,84.30
2019-06-07T08:39:36.275Z,84.60
2019-06-07T08:42:17.821Z,86.00
2019-06-07T08:44:37.871Z,84.60
2019-06-07T08:47:19.777Z,82.80
2019-06-07T08:49:39.477Z,81.60
2019-06-07T08:52:12.144Z,81.00
2019-06-07T08:54:40.783Z,80.30
2019-06-07T08:57:20.756Z,79.50
2019-06-07T08:59:41.991Z,78.50
2019-06-07T09:02:23.306Z,77.10
2019-06-07T09:04:43.337Z,77.90
2019-06-07T09:07:19.677Z,78.70
2019-06-07T09:09:44.793Z,79.30
2019-06-07T09:12:14.540Z,79.00
2019-06-07T09:14:59.890Z,78.70
2019-06-07T09:17:15.829Z,76.30
2019-06-07T09:19:45.725Z,75.30
2019-06-07T09:22:15.581Z,75.60
2019-06-07T09:24:45.248Z,74.40
2019-06-07T09:27:15.509Z,73.00
2019-06-07T09:29:45.877Z,73.40
2019-06-07T09:32:18.318Z,71.10
2019-06-07T09:34:47.205Z,71.90
2019-06-07T09:38:03.545Z,70.30
2019-06-07T09:39:50.047Z,70.70
2019-06-07T09:42:19.767Z,70.40
2019-06-07T09:44:49.669Z,69.20
2019-06-07T09:47:31.669Z,69.10
2019-06-07T09:49:50.992Z,69.00
2019-06-07T09:52:20.846Z,68.60
2019-06-07T09:55:21.695Z,67.10
2019-06-07T09:57:22.090Z,67.40
2019-06-07T09:59:52.078Z,67.80
2019-06-07T10:02:21.936Z,67.00
2019-06-07T10:04:51.747Z,66.60
2019-06-07T10:07:31.230Z,65.10
2019-06-07T10:12:24.310Z,65.90
2019-06-07T10:14:54.231Z,64.80
2019-06-07T10:17:24.183Z,64.70
2019-06-07T10:19:54.124Z,64.40
2019-06-07T10:22:24.077Z,63.60
2019-06-07T10:24:53.952Z,62.90
2019-06-07T10:27:23.852Z,62.80
2019-06-07T10:29:53.758Z,62.70
2019-06-07T10:32:23.570Z,62.80
2019-06-07T10:34:53.484Z,62.20
2019-06-07T10:37:23.509Z,62.20
2019-06-07T10:39:53.568Z,61.50
2019-06-07T10:42:23.452Z,59.90
2019-06-07T10:44:53.563Z,60.90
2019-06-07T10:47:23.410Z,60.80
2019-06-07T10:49:53.357Z,60.80
2019-06-07T10:52:23.163Z,61.00
2019-06-07T10:54:52.917Z,61.50
2019-06-07T10:57:22.706Z,61.00
2019-06-07T10:59:52.412Z,60.20
2019-06-07T11:02:22.128Z,60.50
2019-06-07T11:04:51.958Z,60.90
2019-06-07T11:07:21.688Z,60.20
2019-06-07T11:10:06.371Z,59.50
2019-06-07T11:12:24.009Z,59.10
2019-06-07T11:14:53.701Z,60.00
2019-06-07T11:17:23.401Z,60.10
2019-06-07T11:19:53.080Z,59.90
2019-06-07T11:22:22.810Z,59.60
2019-06-07T11:24:52.480Z,59.40
2019-06-07T11:27:22.200Z,59.10
2019-06-07T11:29:52.032Z,58.90
2019-06-07T11:32:21.697Z,58.30
2019-06-07T11:34:51.405Z,59.50
2019-06-07T11:37:21.076Z,58.70
2019-06-07T11:39:51.543Z,59.60
2019-06-07T11:42:21.314Z,58.70
2019-06-07T11:44:56.857Z,58.70
2019-06-07T11:47:22.325Z,58.70
2019-06-07T11:49:52.012Z,58.60
2019-06-07T11:52:21.771Z,57.90
2019-06-07T11:54:51.411Z,58.20
2019-06-07T11:57:21.154Z,58.30
2019-06-07T11:59:50.830Z,58.10
2019-06-07T12:02:20.667Z,58.10
2019-06-07T12:04:50.397Z,57.70
2019-06-07T12:07:20.101Z,57.90
2019-06-07T12:09:56.339Z,57.80
2019-06-07T12:12:21.267Z,58.20
2019-06-07T12:14:50.945Z,57.90
2019-06-07T12:17:20.861Z,56.90
2019-06-07T12:19:50.516Z,57.90
2019-06-07T12:22:20.346Z,58.20
2019-06-07T12:24:50.081Z,57.40
2019-06-07T12:27:20.834Z,57.70
2019-06-07T12:29:50.813Z,57.50
2019-06-07T12:32:21.611Z,57.70
2019-06-07T12:34:51.644Z,56.70
2019-06-07T12:37:28.404Z,56.80
2019-06-07T12:39:52.927Z,56.80
2019-06-07T12:42:22.748Z,56.70
2019-06-07T12:44:52.894Z,56.00
2019-06-07T12:47:23.274Z,55.00
2019-06-07T12:49:53.254Z,54.10
2019-06-07T12:52:24.314Z,54.40
2019-06-07T12:54:54.478Z,54.90
2019-06-07T12:57:24.244Z,55.40
2019-06-07T12:59:53.933Z,55.80
2019-06-07T13:02:25.555Z,56.20
2019-06-07T13:04:55.587Z,55.80
2019-06-07T13:07:25.293Z,56.00
2019-06-07T13:09:54.975Z,54.80
2019-06-07T13:12:24.618Z,55.30
2019-06-07T13:14:54.329Z,55.70
2019-06-07T13:17:24.245Z,55.70
2019-06-07T13:19:53.938Z,55.20
2019-06-07T13:22:24.412Z,54.40
2019-06-07T13:24:54.555Z,54.00
2019-06-07T13:27:24.522Z,53.30
2019-06-07T13:29:54.759Z,54.00
2019-06-07T13:32:24.561Z,53.40
2019-06-07T13:34:55.166Z,52.80
2019-06-07T13:37:25.476Z,52.70
2019-06-07T13:39:55.501Z,52.60
2019-06-07T13:42:25.360Z,54.10
2019-06-07T13:44:55.164Z,53.90
2019-06-07T13:47:25.331Z,53.70
2019-06-07T13:49:55.655Z,54.10
2019-06-07T13:52:25.744Z,53.60
2019-06-07T13:54:55.588Z,54.10
2019-06-07T13:57:26.054Z,54.40
2019-06-07T13:59:56.021Z,54.40
2019-06-07T14:02:27.457Z,55.20
2019-06-07T14:04:57.289Z,55.40
2019-06-07T14:07:28.598Z,56.20
2019-06-07T14:09:58.409Z,56.50
2019-06-07T14:12:28.161Z,57.20
2019-06-07T14:14:57.891Z,56.80
2019-06-07T14:17:30.451Z,56.40
2019-06-07T14:19:59.958Z,56.80
2019-06-07T14:22:31.094Z,57.50
2019-06-07T14:25:01.105Z,58.30
2019-06-07T14:27:31.934Z,59.30
2019-06-07T14:30:02.123Z,59.70
2019-06-07T14:32:32.752Z,59.80
2019-06-07T14:35:03.341Z,59.90
2019-06-07T14:37:33.205Z,60.20
2019-06-07T14:40:02.882Z,60.80
2019-06-07T14:42:33.419Z,61.40
2019-06-07T14:45:06.171Z,62.00
2019-06-07T14:47:35.017Z,62.00
2019-06-07T14:50:06.127Z,62.00
2019-06-07T14:52:35.934Z,62.00
2019-06-07T14:55:06.511Z,61.70
2019-06-07T14:57:36.515Z,61.70
2019-06-07T15:00:11.291Z,61.20
2019-06-07T15:08:51.765Z,60.50
2019-06-07T15:11:22.161Z,60.20
2019-06-07T15:13:51.944Z,59.80
2019-06-07T15:16:21.679Z,59.60
2019-06-07T15:18:51.459Z,59.00
2019-06-07T15:21:21.174Z,58.20
2019-06-07T15:23:51.221Z,57.70
2019-06-07T15:26:20.979Z,56.70
2019-06-07T15:28:51.870Z,56.20
2019-06-07T15:31:21.651Z,56.00
2019-06-07T15:33:51.359Z,57.00
2019-06-07T15:36:21.099Z,58.40
2019-06-07T15:38:50.849Z,59.50
2019-06-07T15:41:26.560Z,60.20
2019-06-07T15:43:56.555Z,61.40
2019-06-07T15:46:26.561Z,62.20
2019-06-07T15:48:56.383Z,62.40
2019-06-07T15:51:26.056Z,62.60
2019-06-07T15:53:55.939Z,62.20
2019-06-07T15:56:25.730Z,62.30
2019-06-07T15:58:55.855Z,62.80
2019-06-07T16:01:25.594Z,63.20
2019-06-07T16:03:55.318Z,62.90
2019-06-07T16:06:25.038Z,62.20
2019-06-07T16:08:54.834Z,61.50
2019-06-07T16:11:24.741Z,61.10
2019-06-07T16:13:54.555Z,60.80
2019-06-07T16:16:24.308Z,61.00
2019-06-07T16:22:33.514Z,61.70
2019-06-07T16:25:04.693Z,62.70
2019-06-07T16:27:34.513Z,63.00
2019-06-07T16:30:09.275Z,63.20
2019-06-07T16:32:37.431Z,64.10
2019-06-07T16:38:24.510Z,64.20
2019-06-07T16:40:54.179Z,66.30
2019-06-07T16:43:24.311Z,67.50
2019-06-07T16:45:54.064Z,68.40
2019-06-07T16:54:26.637Z,71.40
2019-06-07T16:56:56.474Z,72.00
2019-06-07T16:59:26.402Z,72.60
2019-06-07T17:01:56.276Z,72.90
2019-06-07T17:04:26.023Z,73.30
2019-06-07T17:06:56.207Z,74.30
2019-06-07T17:09:25.930Z,74.80
2019-06-07T17:11:55.594Z,75.10
2019-06-07T17:14:25.273Z,75.50
2019-06-07T17:16:55.041Z,75.60
2019-06-07T17:22:47.529Z,75.90
2019-06-07T17:25:19.258Z,76.50
2019-06-07T17:27:50.197Z,77.40
2019-06-07T17:30:21.157Z,78.30
2019-06-07T17:32:58.699Z,78.80
2019-06-07T17:38:40.403Z,78.90
2019-06-07T17:41:10.430Z,78.90
2019-06-07T17:43:49.424Z,79.40
2019-06-07T17:46:11.640Z,80.70
2019-06-07T17:55:08.331Z,82.70
2019-06-07T17:57:38.180Z,82.30
2019-06-07T18:00:27.626Z,83.00
2019-06-07T18:02:40.278Z,83.60
2019-06-07T18:08:27.458Z,84.50
2019-06-07T18:10:57.134Z,84.90
2019-06-07T18:13:28.345Z,85.70
2019-06-07T18:15:59.804Z,85.60
2019-06-07T18:18:29.489Z,85.90
2019-06-07T18:24:07.664Z,86.70
2019-06-07T18:26:37.768Z,87.10
2019-06-07T18:29:07.660Z,87.30
2019-06-07T18:31:37.419Z,87.20
2019-06-07T18:40:33.050Z,87.10
2019-06-07T18:43:02.979Z,87.50
2019-06-07T18:45:32.767Z,87.60
2019-06-07T18:48:02.518Z,88.00
2019-06-07T18:53:40.277Z,88.20
2019-06-07T18:56:10.074Z,88.40
2019-06-07T18:58:39.885Z,88.60
2019-06-07T19:01:09.653Z,88.70
2019-06-07T19:03:39.417Z,88.50
2019-06-07T19:06:09.152Z,88.30
2019-06-07T19:08:39.014Z,88.70
2019-06-07T19:11:08.697Z,88.50
2019-06-07T19:13:38.456Z,87.80
2019-06-07T19:16:08.215Z,87.60
2019-06-07T19:18:37.898Z,87.90
2019-06-07T19:21:07.783Z,87.90
2019-06-07T19:23:39.363Z,87.70
2019-06-07T19:26:09.111Z,87.50
2019-06-07T19:28:39.041Z,87.30
2019-06-07T19:31:08.799Z,87.10
2019-06-07T19:33:48.785Z,86.70
2019-06-07T19:36:10.382Z,86.40
2019-06-07T19:38:40.192Z,86.20
2019-06-07T19:41:19.265Z,86.10
2019-06-07T19:43:41.618Z,85.90
2019-06-07T19:46:11.316Z,85.80
2019-06-07T19:48:41.005Z,85.50
2019-06-07T19:51:10.778Z,85.20
2019-06-07T19:54:26.456Z,85.10
2019-06-07T19:56:59.457Z,85.10
2019-06-07T19:59:29.943Z,84.80
2019-06-07T20:02:05.881Z,85.00
2019-06-07T20:04:37.164Z,84.80
2019-06-07T20:07:14.257Z,85.10
2019-06-07T20:09:45.202Z,85.10
2019-06-07T20:12:16.131Z,85.30
2019-06-07T20:14:47.040Z,85.90
2019-06-07T20:17:17.228Z,86.10
2019-06-07T20:19:47.833Z,85.40
2019-06-07T20:22:18.179Z,85.40
2019-06-07T20:24:58.847Z,85.20
2019-06-07T20:31:04.205Z,85.40
2019-06-07T20:33:35.824Z,85.30
2019-06-07T20:36:05.629Z,85.40
2019-06-07T20:38:36.198Z,85.40
2019-06-07T20:41:06.011Z,85.40
2019-06-07T20:43:35.805Z,85.20
2019-06-07T20:46:06.650Z,85.20
2019-06-07T20:48:37.436Z,85.20
2019-06-07T20:51:08.556Z,85.20
2019-06-07T20:53:38.516Z,85.30
2019-06-07T20:56:09.170Z,85.30
2019-06-07T20:58:39.219Z,85.50
2019-06-07T21:01:09.268Z,85.60
2019-06-07T21:03:39.128Z,85.80
2019-06-07T21:12:25.740Z,85.60
2019-06-07T21:14:55.862Z,85.40
2019-06-07T21:17:26.208Z,85.40
2019-06-07T21:19:55.986Z,85.50
2019-06-07T21:22:25.841Z,85.70
2019-06-07T21:24:55.618Z,85.80
2019-06-07T21:27:25.430Z,85.80
2019-06-07T21:29:55.224Z,85.90
2019-06-07T21:32:24.939Z,85.90
2019-06-07T21:34:54.689Z,85.80
2019-06-07T21:37:24.410Z,85.60
2019-06-07T21:39:54.268Z,85.70
2019-06-07T21:42:26.092Z,85.90
2019-06-07T21:44:55.795Z,86.00
2019-06-07T21:47:25.492Z,86.00
2019-06-07T21:49:55.587Z,86.00
2019-06-07T21:52:25.320Z,86.10
2019-06-07T21:54:55.100Z,86.00
2019-06-07T21:57:24.851Z,86.20
2019-06-07T21:59:54.487Z,86.40
2019-06-07T22:02:24.230Z,86.40
2019-06-07T22:04:54.008Z,86.70
2019-06-07T22:07:23.768Z,86.90
2019-06-07T22:09:53.411Z,87.30
2019-06-07T22:12:23.076Z,87.40
2019-06-07T22:14:52.795Z,87.20
2019-06-07T22:17:22.420Z,87.30
2019-06-07T22:19:52.140Z,87.40
2019-06-07T22:22:21.786Z,87.30
2019-06-07T22:24:51.433Z,87.30
2019-06-07T22:27:21.175Z,87.30
2019-06-07T22:29:52.594Z,87.30
2019-06-07T22:32:22.407Z,87.10
2019-06-07T22:34:52.091Z,87.20
2019-06-07T22:37:23.618Z,87.30
2019-06-07T22:39:53.546Z,87.30
2019-06-07T22:42:23.297Z,87.40
2019-06-07T22:44:53.169Z,87.40
2019-06-07T22:47:22.979Z,87.20
2019-06-07T22:49:52.727Z,86.80
2019-06-07T22:52:22.435Z,86.30
2019-06-07T22:54:52.255Z,85.80
2019-06-07T22:57:25.848Z,85.60
2019-06-07T22:59:55.516Z,85.40
2019-06-07T23:02:25.360Z,85.30
2019-06-07T23:04:55.048Z,85.40
2019-06-07T23:07:24.834Z,85.30
2019-06-07T23:09:54.581Z,85.20
2019-06-07T23:12:24.249Z,85.00
2019-06-07T23:14:53.890Z,84.90
2019-06-07T23:17:23.557Z,84.80
2019-06-07T23:19:53.268Z,84.90
2019-06-07T23:22:22.890Z,84.80
2019-06-07T23:24:52.562Z,84.70
2019-06-07T23:27:22.223Z,84.70
2019-06-07T23:29:51.989Z,85.00
2019-06-07T23:32:21.687Z,85.00
2019-06-07T23:34:51.405Z,84.60
2019-06-07T23:37:21.444Z,84.60
2019-06-07T23:39:51.150Z,84.60
2019-06-07T23:42:21.830Z,84.60
2019-06-07T23:44:51.978Z,84.70
2019-06-07T23:47:22.448Z,84.50
2019-06-07T23:49:52.398Z,84.50
2019-06-07T23:52:22.179Z,84.40
2019-06-07T23:54:52.265Z,84.40
2019-06-07T23:57:22.687Z,84.30
2019-06-07T23:59:52.622Z,84.40
